sensor_id;sensor_type;location;lat;lon;timestamp;temperature;humidity
1137;DHT22;557;48.466;7.950;2023-08-17T00:02:20;20.70;99.90
1137;DHT22;557;48.466;7.950;2023-08-17T00:05:07;20.70;99.90
1137;DHT22;557;48.466;7.950;2023-08-17T00:07:55;20.70;99.90
1137;DHT22;557;48.466;7.950;2023-08-17T00:10:43;20.70;99.90
1137;DHT22;557;48.466;7.950;2023-08-17T00:13:30;20.70;99.90
1137;DHT22;557;48.466;7.950;2023-08-17T00:16:18;20.70;99.90
1137;DHT22;557;48.466;7.950;2023-08-17T00:19:05;20.70;99.90
1137;DHT22;557;48.466;7.950;2023-08-17T00:21:53;20.70;99.90
1137;DHT22;557;48.466;7.950;2023-08-17T00:24:41;20.70;99.90
1137;DHT22;557;48.466;7.950;2023-08-17T00:27:31;20.70;99.90
1137;DHT22;557;48.466;7.950;2023-08-17T00:30:19;20.60;99.90
1137;DHT22;557;48.466;7.950;2023-08-17T00:33:06;20.50;99.90
1137;DHT22;557;48.466;7.950;2023-08-17T00:35:53;20.40;99.90
1137;DHT22;557;48.466;7.950;2023-08-17T00:38:40;20.40;99.90
1137;DHT22;557;48.466;7.950;2023-08-17T00:41:28;20.40;99.90
1137;DHT22;557;48.466;7.950;2023-08-17T00:44:17;20.40;99.90
1137;DHT22;557;48.466;7.950;2023-08-17T00:47:05;20.40;99.90
1137;DHT22;557;48.466;7.950;2023-08-17T00:49:52;20.30;99.90
1137;DHT22;557;48.466;7.950;2023-08-17T00:52:40;20.30;99.90
1137;DHT22;557;48.466;7.950;2023-08-17T00:55:28;20.20;99.90
1137;DHT22;557;48.466;7.950;2023-08-17T00:58:15;20.20;99.90
1137;DHT22;557;48.466;7.950;2023-08-17T01:01:04;20.20;99.90
1137;DHT22;557;48.466;7.950;2023-08-17T01:03:51;20.20;99.90
1137;DHT22;557;48.466;7.950;2023-08-17T01:06:39;20.20;99.90
1137;DHT22;557;48.466;7.950;2023-08-17T01:09:26;20.20;99.90
1137;DHT22;557;48.466;7.950;2023-08-17T01:12:19;20.20;99.90
1137;DHT22;557;48.466;7.950;2023-08-17T01:15:12;20.20;99.90
1137;DHT22;557;48.466;7.950;2023-08-17T01:18:06;20.20;99.90
1137;DHT22;557;48.466;7.950;2023-08-17T01:20:57;20.20;99.90
1137;DHT22;557;48.466;7.950;2023-08-17T01:23:46;20.20;99.90
1137;DHT22;557;48.466;7.950;2023-08-17T01:26:35;20.20;99.90
1137;DHT22;557;48.466;7.950;2023-08-17T01:29:23;20.30;99.90
1137;DHT22;557;48.466;7.950;2023-08-17T01:32:15;20.30;99.90
1137;DHT22;557;48.466;7.950;2023-08-17T01:35:09;20.30;99.90
1137;DHT22;557;48.466;7.950;2023-08-17T01:38:01;20.30;99.90
1137;DHT22;557;48.466;7.950;2023-08-17T01:40:51;20.30;99.90
1137;DHT22;557;48.466;7.950;2023-08-17T01:43:41;20.30;99.90
1137;DHT22;557;48.466;7.950;2023-08-17T01:46:32;20.30;99.90
1137;DHT22;557;48.466;7.950;2023-08-17T01:49:20;20.30;99.90
1137;DHT22;557;48.466;7.950;2023-08-17T01:52:07;20.30;99.90
1137;DHT22;557;48.466;7.950;2023-08-17T01:54:54;20.20;99.90
1137;DHT22;557;48.466;7.950;2023-08-17T01:57:43;20.20;99.90
1137;DHT22;557;48.466;7.950;2023-08-17T02:00:30;20.30;99.90
1137;DHT22;557;48.466;7.950;2023-08-17T02:03:17;20.30;99.90
1137;DHT22;557;48.466;7.950;2023-08-17T02:06:04;20.30;99.90
1137;DHT22;557;48.466;7.950;2023-08-17T02:08:52;20.30;99.90
1137;DHT22;557;48.466;7.950;2023-08-17T02:11:39;20.30;99.90
1137;DHT22;557;48.466;7.950;2023-08-17T02:14:28;20.30;99.90
1137;DHT22;557;48.466;7.950;2023-08-17T02:17:15;20.40;99.90
1137;DHT22;557;48.466;7.950;2023-08-17T02:20:06;20.30;99.90
1137;DHT22;557;48.466;7.950;2023-08-17T02:22:54;20.30;99.90
1137;DHT22;557;48.466;7.950;2023-08-17T02:25:42;20.30;99.90
1137;DHT22;557;48.466;7.950;2023-08-17T02:28:29;20.30;99.90
1137;DHT22;557;48.466;7.950;2023-08-17T02:31:19;20.30;99.90
1137;DHT22;557;48.466;7.950;2023-08-17T02:34:10;20.30;99.90
1137;DHT22;557;48.466;7.950;2023-08-17T02:37:01;20.30;99.90
1137;DHT22;557;48.466;7.950;2023-08-17T02:39:48;20.20;99.90
1137;DHT22;557;48.466;7.950;2023-08-17T02:42:35;20.20;99.90
1137;DHT22;557;48.466;7.950;2023-08-17T02:45:23;20.20;99.90
1137;DHT22;557;48.466;7.950;2023-08-17T02:48:11;20.10;99.90
1137;DHT22;557;48.466;7.950;2023-08-17T02:50:59;20.10;99.90
1137;DHT22;557;48.466;7.950;2023-08-17T02:53:47;20.10;99.90
1137;DHT22;557;48.466;7.950;2023-08-17T02:56:34;20.10;99.90
1137;DHT22;557;48.466;7.950;2023-08-17T02:59:22;20.10;99.90
1137;DHT22;557;48.466;7.950;2023-08-17T03:02:09;20.00;99.90
1137;DHT22;557;48.466;7.950;2023-08-17T03:04:58;20.00;99.90
1137;DHT22;557;48.466;7.950;2023-08-17T03:07:46;19.90;99.90
1137;DHT22;557;48.466;7.950;2023-08-17T03:10:33;19.90;99.90
1137;DHT22;557;48.466;7.950;2023-08-17T03:13:21;19.90;99.90
1137;DHT22;557;48.466;7.950;2023-08-17T03:16:08;19.90;99.90
1137;DHT22;557;48.466;7.950;2023-08-17T03:18:56;20.00;99.90
1137;DHT22;557;48.466;7.950;2023-08-17T03:21:45;20.00;99.90
1137;DHT22;557;48.466;7.950;2023-08-17T03:24:32;20.00;99.90
1137;DHT22;557;48.466;7.950;2023-08-17T03:27:20;20.00;99.90
1137;DHT22;557;48.466;7.950;2023-08-17T03:30:07;20.00;99.90
1137;DHT22;557;48.466;7.950;2023-08-17T03:32:56;20.10;99.90
1137;DHT22;557;48.466;7.950;2023-08-17T03:35:44;20.10;99.90
1137;DHT22;557;48.466;7.950;2023-08-17T03:38:33;20.10;99.90
1137;DHT22;557;48.466;7.950;2023-08-17T03:41:21;20.00;99.90
1137;DHT22;557;48.466;7.950;2023-08-17T03:44:10;20.00;99.90
1137;DHT22;557;48.466;7.950;2023-08-17T03:46:59;19.90;99.90
1137;DHT22;557;48.466;7.950;2023-08-17T03:49:47;20.00;99.90
1137;DHT22;557;48.466;7.950;2023-08-17T03:52:34;19.90;99.90
1137;DHT22;557;48.466;7.950;2023-08-17T03:55:23;20.00;99.90
1137;DHT22;557;48.466;7.950;2023-08-17T03:58:10;20.00;99.90
1137;DHT22;557;48.466;7.950;2023-08-17T04:00:58;20.00;99.90
1137;DHT22;557;48.466;7.950;2023-08-17T04:03:45;19.90;99.90
1137;DHT22;557;48.466;7.950;2023-08-17T04:06:36;20.00;99.90
1137;DHT22;557;48.466;7.950;2023-08-17T04:09:25;19.90;99.90
1137;DHT22;557;48.466;7.950;2023-08-17T04:12:14;20.00;99.90
1137;DHT22;557;48.466;7.950;2023-08-17T04:15:02;20.00;99.90
1137;DHT22;557;48.466;7.950;2023-08-17T04:17:49;20.00;99.90
1137;DHT22;557;48.466;7.950;2023-08-17T04:20:38;20.00;99.90
1137;DHT22;557;48.466;7.950;2023-08-17T04:23:25;19.90;99.90
1137;DHT22;557;48.466;7.950;2023-08-17T04:26:12;19.90;99.90
1137;DHT22;557;48.466;7.950;2023-08-17T04:29:01;19.80;99.90
1137;DHT22;557;48.466;7.950;2023-08-17T04:31:49;19.80;99.90
1137;DHT22;557;48.466;7.950;2023-08-17T04:34:36;19.70;99.90
1137;DHT22;557;48.466;7.950;2023-08-17T04:37:24;19.70;99.90
1137;DHT22;557;48.466;7.950;2023-08-17T04:40:13;19.80;99.90
1137;DHT22;557;48.466;7.950;2023-08-17T04:43:00;19.80;99.90
1137;DHT22;557;48.466;7.950;2023-08-17T04:45:52;19.80;99.90
1137;DHT22;557;48.466;7.950;2023-08-17T04:48:40;19.80;99.90
1137;DHT22;557;48.466;7.950;2023-08-17T04:51:27;19.80;99.90
1137;DHT22;557;48.466;7.950;2023-08-17T04:54:15;19.80;99.90
1137;DHT22;557;48.466;7.950;2023-08-17T04:57:02;19.80;99.90
1137;DHT22;557;48.466;7.950;2023-08-17T04:59:51;19.70;99.90
1137;DHT22;557;48.466;7.950;2023-08-17T05:02:40;19.70;99.90
1137;DHT22;557;48.466;7.950;2023-08-17T05:05:29;19.70;99.90
1137;DHT22;557;48.466;7.950;2023-08-17T05:08:17;19.80;99.90
1137;DHT22;557;48.466;7.950;2023-08-17T05:11:05;19.80;99.90
1137;DHT22;557;48.466;7.950;2023-08-17T05:13:52;19.80;99.90
1137;DHT22;557;48.466;7.950;2023-08-17T05:16:39;19.80;99.90
1137;DHT22;557;48.466;7.950;2023-08-17T05:19:29;19.80;99.90
1137;DHT22;557;48.466;7.950;2023-08-17T05:22:16;19.80;99.90
1137;DHT22;557;48.466;7.950;2023-08-17T05:25:05;19.80;99.90
1137;DHT22;557;48.466;7.950;2023-08-17T05:27:52;19.90;99.90
1137;DHT22;557;48.466;7.950;2023-08-17T05:30:39;19.90;99.90
1137;DHT22;557;48.466;7.950;2023-08-17T05:33:27;19.90;99.90
1137;DHT22;557;48.466;7.950;2023-08-17T05:36:15;20.00;99.90
1137;DHT22;557;48.466;7.950;2023-08-17T05:39:03;20.00;99.90
1137;DHT22;557;48.466;7.950;2023-08-17T05:41:50;20.00;99.90
1137;DHT22;557;48.466;7.950;2023-08-17T05:44:38;20.00;99.90
1137;DHT22;557;48.466;7.950;2023-08-17T05:47:26;20.00;99.90
1137;DHT22;557;48.466;7.950;2023-08-17T05:50:13;20.00;99.90
1137;DHT22;557;48.466;7.950;2023-08-17T05:53:02;20.00;99.90
1137;DHT22;557;48.466;7.950;2023-08-17T05:55:49;20.00;99.90
1137;DHT22;557;48.466;7.950;2023-08-17T05:58:37;20.00;99.90
1137;DHT22;557;48.466;7.950;2023-08-17T06:01:24;20.20;99.90
1137;DHT22;557;48.466;7.950;2023-08-17T06:04:11;20.30;99.90
1137;DHT22;557;48.466;7.950;2023-08-17T06:06:59;20.40;99.90
1137;DHT22;557;48.466;7.950;2023-08-17T06:09:47;20.60;99.90
1137;DHT22;557;48.466;7.950;2023-08-17T06:12:36;20.60;99.90
1137;DHT22;557;48.466;7.950;2023-08-17T06:15:27;20.70;99.90
1137;DHT22;557;48.466;7.950;2023-08-17T06:18:14;20.80;99.90
1137;DHT22;557;48.466;7.950;2023-08-17T06:21:02;20.80;99.90
1137;DHT22;557;48.466;7.950;2023-08-17T06:23:49;20.80;99.90
1137;DHT22;557;48.466;7.950;2023-08-17T06:26:38;20.70;99.90
1137;DHT22;557;48.466;7.950;2023-08-17T06:29:26;20.60;99.90
1137;DHT22;557;48.466;7.950;2023-08-17T06:32:13;20.60;99.90
1137;DHT22;557;48.466;7.950;2023-08-17T06:35:01;20.60;99.90
1137;DHT22;557;48.466;7.950;2023-08-17T06:37:48;20.60;99.90
1137;DHT22;557;48.466;7.950;2023-08-17T06:40:37;20.60;99.90
1137;DHT22;557;48.466;7.950;2023-08-17T06:43:25;20.60;99.90
1137;DHT22;557;48.466;7.950;2023-08-17T06:46:13;20.70;99.90
1137;DHT22;557;48.466;7.950;2023-08-17T06:49:00;20.80;99.90
1137;DHT22;557;48.466;7.950;2023-08-17T06:51:47;20.80;99.90
1137;DHT22;557;48.466;7.950;2023-08-17T06:54:35;20.90;99.90
1137;DHT22;557;48.466;7.950;2023-08-17T06:57:23;21.00;99.90
1137;DHT22;557;48.466;7.950;2023-08-17T07:00:12;21.00;99.90
1137;DHT22;557;48.466;7.950;2023-08-17T07:02:59;21.10;99.90
1137;DHT22;557;48.466;7.950;2023-08-17T07:05:47;21.20;99.90
1137;DHT22;557;48.466;7.950;2023-08-17T07:08:34;21.30;99.90
1137;DHT22;557;48.466;7.950;2023-08-17T07:11:21;21.40;99.90
1137;DHT22;557;48.466;7.950;2023-08-17T07:14:09;21.60;99.90
1137;DHT22;557;48.466;7.950;2023-08-17T07:16:58;21.60;99.90
1137;DHT22;557;48.466;7.950;2023-08-17T07:19:45;21.80;99.90
1137;DHT22;557;48.466;7.950;2023-08-17T07:22:32;21.90;99.90
1137;DHT22;557;48.466;7.950;2023-08-17T07:25:21;21.90;99.90
1137;DHT22;557;48.466;7.950;2023-08-17T07:28:08;22.00;99.90
1137;DHT22;557;48.466;7.950;2023-08-17T07:30:55;21.80;99.90
1137;DHT22;557;48.466;7.950;2023-08-17T07:33:44;21.70;99.90
1137;DHT22;557;48.466;7.950;2023-08-17T07:36:31;21.80;99.90
1137;DHT22;557;48.466;7.950;2023-08-17T07:39:19;21.70;99.90
1137;DHT22;557;48.466;7.950;2023-08-17T07:42:06;21.50;99.90
1137;DHT22;557;48.466;7.950;2023-08-17T07:44:53;21.50;99.90
1137;DHT22;557;48.466;7.950;2023-08-17T07:47:41;21.50;99.90
1137;DHT22;557;48.466;7.950;2023-08-17T07:50:29;21.40;99.90
1137;DHT22;557;48.466;7.950;2023-08-17T07:53:17;21.60;99.90
1137;DHT22;557;48.466;7.950;2023-08-17T07:56:04;21.70;99.90
1137;DHT22;557;48.466;7.950;2023-08-17T07:58:53;21.70;99.90
1137;DHT22;557;48.466;7.950;2023-08-17T08:01:40;21.60;99.90
1137;DHT22;557;48.466;7.950;2023-08-17T08:04:28;21.70;99.90
1137;DHT22;557;48.466;7.950;2023-08-17T08:07:17;21.90;99.90
1137;DHT22;557;48.466;7.950;2023-08-17T08:10:04;22.00;99.90
1137;DHT22;557;48.466;7.950;2023-08-17T08:12:52;22.20;99.90
1137;DHT22;557;48.466;7.950;2023-08-17T08:15:39;22.20;99.90
1137;DHT22;557;48.466;7.950;2023-08-17T08:18:26;22.20;99.90
1137;DHT22;557;48.466;7.950;2023-08-17T08:21:14;22.10;99.90
1137;DHT22;557;48.466;7.950;2023-08-17T08:24:03;22.00;99.90
1137;DHT22;557;48.466;7.950;2023-08-17T08:26:50;22.00;99.90
1137;DHT22;557;48.466;7.950;2023-08-17T08:29:39;22.10;99.90
1137;DHT22;557;48.466;7.950;2023-08-17T08:32:27;22.10;99.90
1137;DHT22;557;48.466;7.950;2023-08-17T08:35:14;22.20;99.90
1137;DHT22;557;48.466;7.950;2023-08-17T08:38:01;22.20;99.90
1137;DHT22;557;48.466;7.950;2023-08-17T08:40:50;22.30;99.90
1137;DHT22;557;48.466;7.950;2023-08-17T08:43:38;22.40;99.90
1137;DHT22;557;48.466;7.950;2023-08-17T08:46:27;22.60;99.90
1137;DHT22;557;48.466;7.950;2023-08-17T08:49:19;22.70;99.90
1137;DHT22;557;48.466;7.950;2023-08-17T08:52:07;22.80;99.90
1137;DHT22;557;48.466;7.950;2023-08-17T08:54:57;22.80;99.90
1137;DHT22;557;48.466;7.950;2023-08-17T08:57:49;22.90;99.90
1137;DHT22;557;48.466;7.950;2023-08-17T09:00:37;23.20;99.90
1137;DHT22;557;48.466;7.950;2023-08-17T09:03:25;23.60;85.50
1137;DHT22;557;48.466;7.950;2023-08-17T09:06:13;23.80;39.50
1137;DHT22;557;48.466;7.950;2023-08-17T09:09:02;23.70;47.70
1137;DHT22;557;48.466;7.950;2023-08-17T09:11:49;24.10;25.70
1137;DHT22;557;48.466;7.950;2023-08-17T09:14:38;24.10;1.00
1137;DHT22;557;48.466;7.950;2023-08-17T09:17:27;24.30;1.00
1137;DHT22;557;48.466;7.950;2023-08-17T09:20:36;24.70;1.00
1137;DHT22;557;48.466;7.950;2023-08-17T09:23:23;24.50;1.00
1137;DHT22;557;48.466;7.950;2023-08-17T09:26:11;24.50;1.00
1137;DHT22;557;48.466;7.950;2023-08-17T09:28:58;24.60;1.00
1137;DHT22;557;48.466;7.950;2023-08-17T09:31:49;24.90;1.00
1137;DHT22;557;48.466;7.950;2023-08-17T09:34:36;25.20;1.00
1137;DHT22;557;48.466;7.950;2023-08-17T09:37:23;25.70;1.00
1137;DHT22;557;48.466;7.950;2023-08-17T09:40:11;25.80;1.00
1137;DHT22;557;48.466;7.950;2023-08-17T09:42:59;26.20;1.00
1137;DHT22;557;48.466;7.950;2023-08-17T09:45:46;26.20;99.90
1137;DHT22;557;48.466;7.950;2023-08-17T09:48:37;26.20;1.00
1137;DHT22;557;48.466;7.950;2023-08-17T09:51:24;26.20;99.90
1137;DHT22;557;48.466;7.950;2023-08-17T09:54:20;26.40;1.00
1137;DHT22;557;48.466;7.950;2023-08-17T09:57:09;26.80;99.90
1137;DHT22;557;48.466;7.950;2023-08-17T09:59:57;26.80;99.90
1137;DHT22;557;48.466;7.950;2023-08-17T10:02:44;26.60;99.90
1137;DHT22;557;48.466;7.950;2023-08-17T10:05:38;26.80;99.90
1137;DHT22;557;48.466;7.950;2023-08-17T10:08:28;26.90;99.90
1137;DHT22;557;48.466;7.950;2023-08-17T10:11:19;26.80;33.70
1137;DHT22;557;48.466;7.950;2023-08-17T10:14:13;26.70;21.60
1137;DHT22;557;48.466;7.950;2023-08-17T10:17:07;26.40;99.90
1137;DHT22;557;48.466;7.950;2023-08-17T10:19:59;26.70;99.90
1137;DHT22;557;48.466;7.950;2023-08-17T10:22:52;27.10;1.00
1137;DHT22;557;48.466;7.950;2023-08-17T10:25:45;27.60;99.90
1137;DHT22;557;48.466;7.950;2023-08-17T10:28:34;27.80;1.00
1137;DHT22;557;48.466;7.950;2023-08-17T10:31:22;27.80;99.90
1137;DHT22;557;48.466;7.950;2023-08-17T10:34:09;27.60;99.90
1137;DHT22;557;48.466;7.950;2023-08-17T10:36:58;27.80;22.90
1137;DHT22;557;48.466;7.950;2023-08-17T10:39:48;27.80;1.00
1137;DHT22;557;48.466;7.950;2023-08-17T10:42:36;27.90;99.90
1137;DHT22;557;48.466;7.950;2023-08-17T10:45:28;27.80;86.00
1137;DHT22;557;48.466;7.950;2023-08-17T10:48:25;27.90;99.90
1137;DHT22;557;48.466;7.950;2023-08-17T10:51:14;28.20;1.00
1137;DHT22;557;48.466;7.950;2023-08-17T10:54:03;28.10;74.70
1137;DHT22;557;48.466;7.950;2023-08-17T10:56:52;28.40;1.00
1137;DHT22;557;48.466;7.950;2023-08-17T10:59:43;29.00;1.00
1137;DHT22;557;48.466;7.950;2023-08-17T11:02:32;29.00;1.00
1137;DHT22;557;48.466;7.950;2023-08-17T11:05:35;29.00;1.00
1137;DHT22;557;48.466;7.950;2023-08-17T11:08:27;29.30;1.00
1137;DHT22;557;48.466;7.950;2023-08-17T11:11:15;29.90;1.00
1137;DHT22;557;48.466;7.950;2023-08-17T11:14:04;30.40;1.00
1137;DHT22;557;48.466;7.950;2023-08-17T11:16:54;30.60;1.00
1137;DHT22;557;48.466;7.950;2023-08-17T11:19:43;30.80;1.00
1137;DHT22;557;48.466;7.950;2023-08-17T11:22:30;31.00;99.90
1137;DHT22;557;48.466;7.950;2023-08-17T11:25:17;31.20;99.90
1137;DHT22;557;48.466;7.950;2023-08-17T11:28:06;31.20;1.00
1137;DHT22;557;48.466;7.950;2023-08-17T11:30:59;31.10;56.80
1137;DHT22;557;48.466;7.950;2023-08-17T11:33:47;31.30;1.00
1137;DHT22;557;48.466;7.950;2023-08-17T11:36:37;31.40;33.80
1137;DHT22;557;48.466;7.950;2023-08-17T11:39:24;31.50;1.00
1137;DHT22;557;48.466;7.950;2023-08-17T11:42:12;31.70;1.00
1137;DHT22;557;48.466;7.950;2023-08-17T11:44:59;31.60;1.00
1137;DHT22;557;48.466;7.950;2023-08-17T11:47:48;31.70;1.00
1137;DHT22;557;48.466;7.950;2023-08-17T11:50:35;31.10;1.00
1137;DHT22;557;48.466;7.950;2023-08-17T11:53:23;31.00;1.00
1137;DHT22;557;48.466;7.950;2023-08-17T11:56:10;30.90;1.00
1137;DHT22;557;48.466;7.950;2023-08-17T11:58:59;31.00;41.30
1137;DHT22;557;48.466;7.950;2023-08-17T12:01:55;31.30;1.00
1137;DHT22;557;48.466;7.950;2023-08-17T12:04:45;31.40;1.00
1137;DHT22;557;48.466;7.950;2023-08-17T12:07:32;31.60;1.00
1137;DHT22;557;48.466;7.950;2023-08-17T12:10:20;31.40;1.00
1137;DHT22;557;48.466;7.950;2023-08-17T12:13:11;31.50;1.00
1137;DHT22;557;48.466;7.950;2023-08-17T12:16:00;31.70;1.00
1137;DHT22;557;48.466;7.950;2023-08-17T12:18:48;32.00;1.00
1137;DHT22;557;48.466;7.950;2023-08-17T12:21:36;32.00;1.00
1137;DHT22;557;48.466;7.950;2023-08-17T12:24:24;31.80;1.00
1137;DHT22;557;48.466;7.950;2023-08-17T12:27:12;31.70;1.00
1137;DHT22;557;48.466;7.950;2023-08-17T12:29:59;32.00;1.00
1137;DHT22;557;48.466;7.950;2023-08-17T12:32:46;32.20;1.00
1137;DHT22;557;48.466;7.950;2023-08-17T12:35:33;32.40;1.00
1137;DHT22;557;48.466;7.950;2023-08-17T12:38:23;32.70;1.00
1137;DHT22;557;48.466;7.950;2023-08-17T12:41:10;32.50;1.00
1137;DHT22;557;48.466;7.950;2023-08-17T12:43:58;32.20;1.00
1137;DHT22;557;48.466;7.950;2023-08-17T12:46:45;31.60;1.00
1137;DHT22;557;48.466;7.950;2023-08-17T12:49:35;31.60;1.00
1137;DHT22;557;48.466;7.950;2023-08-17T12:52:23;31.50;1.00
1137;DHT22;557;48.466;7.950;2023-08-17T12:55:14;31.30;1.00
1137;DHT22;557;48.466;7.950;2023-08-17T12:58:02;31.20;75.50
1137;DHT22;557;48.466;7.950;2023-08-17T13:00:50;31.80;8.50
1137;DHT22;557;48.466;7.950;2023-08-17T13:03:40;32.00;1.00
1137;DHT22;557;48.466;7.950;2023-08-17T13:06:27;31.80;1.00
1137;DHT22;557;48.466;7.950;2023-08-17T13:09:15;31.80;1.00
1137;DHT22;557;48.466;7.950;2023-08-17T13:12:06;32.00;1.00
1137;DHT22;557;48.466;7.950;2023-08-17T13:14:53;32.00;1.00
1137;DHT22;557;48.466;7.950;2023-08-17T13:17:40;32.00;1.00
1137;DHT22;557;48.466;7.950;2023-08-17T13:20:27;31.80;1.00
1137;DHT22;557;48.466;7.950;2023-08-17T13:23:15;31.90;1.00
1137;DHT22;557;48.466;7.950;2023-08-17T13:26:02;31.90;1.00
1137;DHT22;557;48.466;7.950;2023-08-17T13:28:50;31.40;1.00
1137;DHT22;557;48.466;7.950;2023-08-17T13:31:38;30.70;99.90
1137;DHT22;557;48.466;7.950;2023-08-17T13:34:25;30.50;99.90
1137;DHT22;557;48.466;7.950;2023-08-17T13:37:12;30.30;1.00
1137;DHT22;557;48.466;7.950;2023-08-17T13:40:00;30.00;1.00
1137;DHT22;557;48.466;7.950;2023-08-17T13:42:47;29.90;99.90
1137;DHT22;557;48.466;7.950;2023-08-17T13:45:35;29.70;1.00
1137;DHT22;557;48.466;7.950;2023-08-17T13:48:23;29.70;1.00
1137;DHT22;557;48.466;7.950;2023-08-17T13:51:10;30.10;1.00
1137;DHT22;557;48.466;7.950;2023-08-17T13:53:57;30.60;1.00
1137;DHT22;557;48.466;7.950;2023-08-17T13:56:45;30.80;1.00
1137;DHT22;557;48.466;7.950;2023-08-17T13:59:32;30.60;99.90
1137;DHT22;557;48.466;7.950;2023-08-17T14:02:20;30.20;1.00
1137;DHT22;557;48.466;7.950;2023-08-17T14:05:08;29.90;99.90
1137;DHT22;557;48.466;7.950;2023-08-17T14:07:55;29.80;27.80
1137;DHT22;557;48.466;7.950;2023-08-17T14:10:42;29.60;1.00
1137;DHT22;557;48.466;7.950;2023-08-17T14:13:30;29.40;99.90
1137;DHT22;557;48.466;7.950;2023-08-17T14:16:17;29.50;23.90
1137;DHT22;557;48.466;7.950;2023-08-17T14:19:05;29.60;24.00
1137;DHT22;557;48.466;7.950;2023-08-17T14:21:53;30.10;1.00
1137;DHT22;557;48.466;7.950;2023-08-17T14:24:40;30.40;1.00
1137;DHT22;557;48.466;7.950;2023-08-17T14:27:27;30.60;1.00
1137;DHT22;557;48.466;7.950;2023-08-17T14:30:14;30.80;1.00
1137;DHT22;557;48.466;7.950;2023-08-17T14:33:02;30.70;99.90
1137;DHT22;557;48.466;7.950;2023-08-17T14:35:51;30.50;63.50
1137;DHT22;557;48.466;7.950;2023-08-17T14:38:38;30.40;99.90
1137;DHT22;557;48.466;7.950;2023-08-17T14:41:26;30.40;99.90
1137;DHT22;557;48.466;7.950;2023-08-17T14:44:17;30.30;99.90
1137;DHT22;557;48.466;7.950;2023-08-17T14:47:05;30.50;1.00
1137;DHT22;557;48.466;7.950;2023-08-17T14:49:52;30.90;99.90
1137;DHT22;557;48.466;7.950;2023-08-17T14:52:41;31.60;1.00
1137;DHT22;557;48.466;7.950;2023-08-17T14:55:29;31.80;1.00
1137;DHT22;557;48.466;7.950;2023-08-17T14:58:16;31.50;99.90
1137;DHT22;557;48.466;7.950;2023-08-17T15:01:04;31.20;99.90
1137;DHT22;557;48.466;7.950;2023-08-17T15:03:51;31.00;99.90
1137;DHT22;557;48.466;7.950;2023-08-17T15:06:38;31.00;99.90
1137;DHT22;557;48.466;7.950;2023-08-17T15:09:27;31.20;1.00
1137;DHT22;557;48.466;7.950;2023-08-17T15:12:14;31.20;99.90
1137;DHT22;557;48.466;7.950;2023-08-17T15:15:01;31.10;99.90
1137;DHT22;557;48.466;7.950;2023-08-17T15:17:50;31.40;1.00
1137;DHT22;557;48.466;7.950;2023-08-17T15:20:37;31.70;99.90
1137;DHT22;557;48.466;7.950;2023-08-17T15:23:24;32.30;99.90
1137;DHT22;557;48.466;7.950;2023-08-17T15:26:13;32.60;1.00
1137;DHT22;557;48.466;7.950;2023-08-17T15:29:00;32.90;1.00
1137;DHT22;557;48.466;7.950;2023-08-17T15:31:47;33.10;1.00
1137;DHT22;557;48.466;7.950;2023-08-17T15:34:35;33.20;1.00
1137;DHT22;557;48.466;7.950;2023-08-17T15:37:22;33.40;1.00
1137;DHT22;557;48.466;7.950;2023-08-17T15:40:10;33.40;1.00
1137;DHT22;557;48.466;7.950;2023-08-17T15:42:58;33.50;99.90
1137;DHT22;557;48.466;7.950;2023-08-17T15:45:51;33.60;99.90
1137;DHT22;557;48.466;7.950;2023-08-17T15:48:39;33.90;99.90
1137;DHT22;557;48.466;7.950;2023-08-17T15:51:26;33.40;99.90
1137;DHT22;557;48.466;7.950;2023-08-17T15:54:13;32.80;99.90
1137;DHT22;557;48.466;7.950;2023-08-17T15:57:00;31.90;1.00
1137;DHT22;557;48.466;7.950;2023-08-17T15:59:49;31.60;1.00
1137;DHT22;557;48.466;7.950;2023-08-17T16:02:38;31.50;99.90
1137;DHT22;557;48.466;7.950;2023-08-17T16:05:25;31.50;1.00
1137;DHT22;557;48.466;7.950;2023-08-17T16:08:12;31.50;37.10
1137;DHT22;557;48.466;7.950;2023-08-17T16:11:00;31.30;1.00
1137;DHT22;557;48.466;7.950;2023-08-17T16:13:47;31.00;18.10
1137;DHT22;557;48.466;7.950;2023-08-17T16:16:36;30.80;55.90
1137;DHT22;557;48.466;7.950;2023-08-17T16:19:23;30.50;99.90
1137;DHT22;557;48.466;7.950;2023-08-17T16:22:10;30.20;99.90
1137;DHT22;557;48.466;7.950;2023-08-17T16:24:58;29.80;99.90
1137;DHT22;557;48.466;7.950;2023-08-17T16:27:45;29.50;99.90
1137;DHT22;557;48.466;7.950;2023-08-17T16:30:32;29.30;1.00
1137;DHT22;557;48.466;7.950;2023-08-17T16:33:22;29.20;1.00
1137;DHT22;557;48.466;7.950;2023-08-17T16:36:10;29.10;1.00
1137;DHT22;557;48.466;7.950;2023-08-17T16:38:57;29.10;99.90
1137;DHT22;557;48.466;7.950;2023-08-17T16:41:44;29.00;99.90
1137;DHT22;557;48.466;7.950;2023-08-17T16:44:31;29.10;1.00
1137;DHT22;557;48.466;7.950;2023-08-17T16:47:19;29.30;96.70
1137;DHT22;557;48.466;7.950;2023-08-17T16:50:09;29.50;99.90
1137;DHT22;557;48.466;7.950;2023-08-17T16:52:57;29.70;1.00
1137;DHT22;557;48.466;7.950;2023-08-17T16:55:44;29.80;1.00
1137;DHT22;557;48.466;7.950;2023-08-17T16:58:31;29.80;1.00
1137;DHT22;557;48.466;7.950;2023-08-17T17:01:19;29.70;99.90
1137;DHT22;557;48.466;7.950;2023-08-17T17:04:06;29.50;99.90
1137;DHT22;557;48.466;7.950;2023-08-17T17:06:54;29.40;1.00
1137;DHT22;557;48.466;7.950;2023-08-17T17:09:42;29.30;53.50
1137;DHT22;557;48.466;7.950;2023-08-17T17:12:30;29.30;99.90
1137;DHT22;557;48.466;7.950;2023-08-17T17:15:17;29.20;1.00
1137;DHT22;557;48.466;7.950;2023-08-17T17:18:05;29.10;1.00
1137;DHT22;557;48.466;7.950;2023-08-17T17:20:52;29.10;99.90
1137;DHT22;557;48.466;7.950;2023-08-17T17:23:40;28.80;1.00
1137;DHT22;557;48.466;7.950;2023-08-17T17:26:28;28.70;99.90
1137;DHT22;557;48.466;7.950;2023-08-17T17:29:15;28.50;99.90
1137;DHT22;557;48.466;7.950;2023-08-17T17:32:03;28.40;99.90
1137;DHT22;557;48.466;7.950;2023-08-17T17:34:50;28.40;99.90
1137;DHT22;557;48.466;7.950;2023-08-17T17:37:37;28.20;99.90
1137;DHT22;557;48.466;7.950;2023-08-17T17:40:26;28.10;99.90
1137;DHT22;557;48.466;7.950;2023-08-17T17:43:13;28.00;1.00
1137;DHT22;557;48.466;7.950;2023-08-17T17:46:02;27.90;1.00
1137;DHT22;557;48.466;7.950;2023-08-17T17:48:50;27.80;1.00
1137;DHT22;557;48.466;7.950;2023-08-17T17:51:38;27.70;1.00
1137;DHT22;557;48.466;7.950;2023-08-17T17:54:26;27.70;1.00
1137;DHT22;557;48.466;7.950;2023-08-17T17:57:14;27.50;1.00
1137;DHT22;557;48.466;7.950;2023-08-17T18:00:02;27.40;1.00
1137;DHT22;557;48.466;7.950;2023-08-17T18:02:50;27.30;1.00
1137;DHT22;557;48.466;7.950;2023-08-17T18:05:38;27.10;1.00
1137;DHT22;557;48.466;7.950;2023-08-17T18:08:25;27.10;1.00
1137;DHT22;557;48.466;7.950;2023-08-17T18:11:12;27.00;1.00
1137;DHT22;557;48.466;7.950;2023-08-17T18:14:01;26.90;1.00
1137;DHT22;557;48.466;7.950;2023-08-17T18:16:48;26.70;1.00
1137;DHT22;557;48.466;7.950;2023-08-17T18:19:35;26.70;1.00
1137;DHT22;557;48.466;7.950;2023-08-17T18:22:23;26.50;1.00
1137;DHT22;557;48.466;7.950;2023-08-17T18:25:10;26.40;3.20
1137;DHT22;557;48.466;7.950;2023-08-17T18:27:57;26.40;1.00
1137;DHT22;557;48.466;7.950;2023-08-17T18:30:46;26.30;13.60
1137;DHT22;557;48.466;7.950;2023-08-17T18:33:33;26.20;19.00
1137;DHT22;557;48.466;7.950;2023-08-17T18:36:20;26.20;34.40
1137;DHT22;557;48.466;7.950;2023-08-17T18:39:07;26.10;51.00
1137;DHT22;557;48.466;7.950;2023-08-17T18:41:55;26.00;64.20